^^

METAR Reports

 

KTHV - York, Pennsylvania, USA
Distance from station: NW 5mi, 8km
Updated: Sat, 25-Sep-2021 4:53pm EDT
Mostly cloudy
Mostly cloudy
 Wind from SW
Wind: SW 3 mph , 6 km/h
Temperature: 70°F , 21°C
Dew Point: 52°F , 11°C
Humidity: 53%
Barometer: 29.95 inHg , 1014.2 hPa
Clouds: Mostly cloudy
Visibility: 10 miles , 16 km
Cloud details: Mostly cloudy 5500 ft
2021/09/25 20:53 KTHV 252053Z AUTO 22003KT 10SM BKN055 21/11 A2995 RMK AO2 SLP142 T02110106 56019
KMDT - Middletown, Pennsylvania, USA
Distance from station: NNW 20mi, 32km
Updated: Sat, 25-Sep-2021 4:56pm EDT
Mostly cloudy
Mostly cloudy
 Wind from SW
Wind: SW 3 mph , 6 km/h
Temperature: 70°F , 21°C
Dew Point: 57°F , 14°C
Humidity: 64%
Barometer: 29.93 inHg , 1013.5 hPa
Clouds: Mostly cloudy
Visibility: 10 miles , 16 km
Cloud details: Few Clouds 5000 ft
Mostly cloudy 20000 ft
2021/09/25 20:56 KMDT 252056Z 22003KT 10SM FEW050 BKN200 21/14 A2993 RMK AO2 SLP136 T02060139 56020 $
 
KLNS - Lancaster, Pennsylvania, USA
Distance from station: N 34mi, 55km
Updated: Sat, 25-Sep-2021 4:53pm EDT
Clear
Clear
 Wind from NW
Wind: NW 6 mph , 9 km/h
Temperature: 73°F , 23°C
Dew Point: 52°F , 11°C
Humidity: 47%
Barometer: 29.94 inHg , 1013.9 hPa
Clouds: Clear
Visibility: 10 miles , 16 km
2021/09/25 20:53 KLNS 252053Z 31005KT 10SM CLR 23/11 A2994 RMK AO2 SLP138 T02280106 56018
KBWI - Baltrimore - Washington, Maryland, USA
Distance from station: S 52mi, 84km
Updated: Sat, 25-Sep-2021 4:54pm EDT
Mostly cloudy
Mostly cloudy
 Wind from W
Wind: W 7 mph , 11 km/h
Temperature: 75°F , 24°C
Dew Point: 52°F , 11°C
Humidity: 44%
Barometer: 29.94 inHg , 1013.9 hPa
Clouds: Mostly cloudy
Visibility: 10 miles , 16 km
Cloud details: Few Clouds 5000 ft
Mostly cloudy 25000 ft
2021/09/25 20:54 KBWI 252054Z 26006KT 10SM FEW050 BKN250 24/11 A2994 RMK AO2 SLP138 T02440106 56018
 
KMQS - Coatesville, Pennsylvania, USA
Distance from station: NE 54mi, 86km
Updated: Sat, 25-Sep-2021 5:35pm EDT
Clear
Clear
 Wind from calm
Wind: Calm
Temperature: 70°F , 21°C
Dew Point: 50°F , 10°C
Humidity: 50%
Barometer: 29.96 inHg , 1014.6 hPa
Clouds: Clear
Visibility: 10 miles , 16 km
2021/09/25 21:35 KMQS 252135Z AUTO 00000KT 10SM CLR 21/10 A2996 RMK AO2
KGAI - Gaithersburg, Maryland, USA
Distance from station: SW 54mi, 86km
Updated: Sat, 25-Sep-2021 4:56pm EDT
Few Clouds
Few Clouds
 Wind from WSW
Wind: WSW 6 mph , 9 km/h
Temperature: 73°F , 23°C
Dew Point: 52°F , 11°C
Humidity: 47%
Barometer: 29.97 inHg , 1014.9 hPa
Clouds: Few Clouds
Visibility: 10 miles , 16 km
Cloud details: Few Clouds 5500 ft
2021/09/25 20:56 KGAI 252056Z AUTO 24005KT 10SM FEW055 23/11 A2997 RMK AO2 SLP161 6//// T02330111 56018 PNO $
 
KFME - Fort Meade, Maryland, USA
Distance from station: SSW 58mi, 93km
Updated: Sat, 25-Sep-2021 5:35pm EDT
Clear
Clear
 Wind from W
Wind: W 3 mph , 6 km/h
Temperature: 68°F , 20°C
Dew Point: 59°F , 15°C
Humidity: 73%
Barometer: 29.97 inHg , 1014.9 hPa
Clouds: Clear
Visibility: 10 miles , 16 km
2021/09/25 21:35 KFME 252135Z AUTO 27003KT 10SM CLR 20/15 A2997 RMK AO1
KCGS - College Park, Maryland, USA
Distance from station: SW 65mi, 104km
Updated: Sat, 25-Sep-2021 5:35pm EDT
Clear
Clear
 Wind from WSW
Wind: WSW 3 mph , 6 km/h
Temperature: 72°F , 22°C
Dew Point: 46°F , 8°C
Humidity: 41%
Barometer: 29.95 inHg , 1014.2 hPa
Clouds: Clear
Visibility: 10 miles , 16 km
2021/09/25 21:35 KCGS 252135Z AUTO 24003KT 10SM CLR 22/08 A2995 RMK AO1 T02210078
 
KILG - Wilmington, Delaware, USA
Distance from station: E 69mi, 111km
Updated: Sat, 25-Sep-2021 5:51pm EDT
Clear
Clear
 Wind from WSW
Wind: WSW 6 mph , 9 km/h
Temperature: 72°F , 22°C
Dew Point: 54°F , 12°C
Humidity: 53%
Barometer: 29.94 inHg , 1013.9 hPa
Clouds: Clear
Visibility: 10 miles , 16 km
2021/09/25 21:51 KILG 252151Z 25005KT 10SM CLR 22/12 A2994 RMK AO2 SLP137 T02220117 $
KW29 - Stevensville, Maryland, USA
Distance from station: S 71mi, 114km
Updated: Sun, 28-Mar-2021 8:55am EDT
NOT Current
Nearby thunderstorm, Rain, Mist, Overcast
Nearby thunderstorm, Rain, Mist, Overcast
 Wind from ESE
Wind: ESE 6 mph , 9 km/h
Temperature: 57°F , 14°C
Barometer: 29.84 inHg , 1010.5 hPa
Summary: Nearby thunderstorm, Rain, Mist
Clouds: Overcast
Visibility: 2 miles , 3 km
Cloud details: Overcast 300 ft
2021/03/28 12:55 KW29 281255Z AUTO 12005KT 2SM VCTSRA BR OVC003 14/ A2984 RMK AO2 LTG DSNT S AND W
 
KAGC - Pittsburgh (Allegheny County), Pennsylvania, USA
Distance from station: W 164mi, 265km
Updated: Sat, 25-Sep-2021 4:53pm EDT
Light rain, Overcast
Light rain, Overcast
 Wind from WSW
Wind: WSW 12 mph , 19 km/h
Temperature: 64°F , 18°C
Dew Point: 54°F , 12°C
Humidity: 68%
Barometer: 29.96 inHg , 1014.6 hPa
Summary: Light rain
Clouds: Overcast
Visibility: 8 miles , 13 km
Cloud details: Overcast 5500 ft
2021/09/25 20:53 KAGC 252053Z 25010KT 8SM -RA OVC055 18/12 A2996 RMK AO2 RAB35 SLP148 P0000 60000 T01830122 55007
KPIT - Pittsburgh, Pennsylvania, USA
Distance from station: W 182mi, 293km
Updated: Sat, 25-Sep-2021 5:51pm EDT
Mostly cloudy
Mostly cloudy
 Wind from WSW
Wind: WSW 9 mph , 15 km/h
Temperature: 64°F , 18°C
Dew Point: 52°F , 11°C
Humidity: 64%
Barometer: 29.96 inHg , 1014.6 hPa
Clouds: Mostly cloudy
Visibility: 10 miles , 16 km
Cloud details: Partly cloudy 4000 ft
Mostly cloudy 6500 ft
Mostly cloudy 12000 ft
2021/09/25 21:51 KPIT 252151Z 25008KT 10SM SCT040 BKN065 BKN120 18/11 A2996 RMK AO2 SLP153 T01780111
 
KFFO - Wright Patterson AFB, Ohio, USA
Distance from station: W 381mi, 613km
Updated: Sat, 25-Sep-2021 4:57pm EDT
Partly cloudy
Partly cloudy
 Wind from WNW
Wind: WNW 9 mph , 15 km/h
Temperature: 68°F , 20°C
Dew Point: 36°F , 2°C
Humidity: 30%
Barometer: 30.02 inHg , 1016.6 hPa
Clouds: Partly cloudy
Visibility: 10 miles , 16 km
Cloud details: Partly cloudy 6000 ft
2021/09/25 20:57 KFFO 252057Z 29008KT 10SM SCT060 20/02 A3002 RMK AO2A SLP167 T02030021 56007
KDAY - Dayton, Ohio, USA
Distance from station: W 390mi, 628km
Updated: Sat, 25-Sep-2021 4:56pm EDT
Partly cloudy
Partly cloudy
 Wind from WNW
Wind: WNW 12 mph , 19 km/h
Temperature: 70°F , 21°C
Dew Point: 37°F , 3°C
Humidity: 31%
Barometer: 30.04 inHg , 1017.3 hPa
Clouds: Partly cloudy
Visibility: 10 miles , 16 km
Cloud details: Partly cloudy 6000 ft
Partly cloudy 25000 ft
2021/09/25 20:56 KDAY 252056Z 30010KT 10SM SCT060 SCT250 21/03 A3004 RMK AO2 SLP168 T02060033 55006
 
KATL - Hartsfield Atlanta, Georgia, USA
Distance from station: S 602mi, 969km
Updated: Sat, 25-Sep-2021 5:52pm EDT
Few Clouds
Few Clouds
 Wind from NW
Wind: NW 7 mph , 11 km/h
Temperature: 75°F , 24°C
Dew Point: 52°F , 11°C
Humidity: 44%
Barometer: 30.06 inHg , 1017.9 hPa
Clouds: Few Clouds
Visibility: 10 miles , 16 km
Cloud details: Few Clouds 25000 ft
2021/09/25 21:52 KATL 252152Z 31006KT 10SM FEW250 24/11 A3006 RMK AO2 SLP172 T02440106
KBHM - Birmingham, Alabama, USA
Distance from station: SSW 701mi, 1,128km
Updated: Sat, 25-Sep-2021 4:53pm EDT
Few Clouds
Few Clouds
 Wind from NE
Wind: NE 3 mph , 6 km/h
Temperature: 79°F , 26°C
Dew Point: 52°F , 11°C
Humidity: 39%
Barometer: 30.09 inHg , 1019 hPa
Clouds: Few Clouds
Visibility: 10 miles , 16 km
Cloud details: Few Clouds 3000 ft
2021/09/25 20:53 KBHM 252053Z 04003KT 10SM FEW030 26/11 A3009 RMK AO2 SLP182 T02560111 56020 $